sensor_id;sensor_type;location;lat;lon;timestamp;P1;durP1;ratioP1;P2;durP2;ratioP2
40983;SDS011;26714;51.332;12.406;2024-02-21T00:00:10;14.00;;;3.17;;
40983;SDS011;26714;51.332;12.406;2024-02-21T00:02:37;15.30;;;2.83;;
40983;SDS011;26714;51.332;12.406;2024-02-21T00:05:03;14.07;;;2.72;;
40983;SDS011;26714;51.332;12.406;2024-02-21T00:07:29;17.33;;;3.28;;
40983;SDS011;26714;51.332;12.406;2024-02-21T00:09:55;16.65;;;3.40;;
40983;SDS011;26714;51.332;12.406;2024-02-21T00:12:22;20.70;;;3.80;;
40983;SDS011;26714;51.332;12.406;2024-02-21T00:14:51;15.80;;;3.65;;
40983;SDS011;26714;51.332;12.406;2024-02-21T00:17:18;16.50;;;3.75;;
40983;SDS011;26714;51.332;12.406;2024-02-21T00:19:44;11.80;;;2.47;;
40983;SDS011;26714;51.332;12.406;2024-02-21T00:22:09;9.15;;;2.35;;
40983;SDS011;26714;51.332;12.406;2024-02-21T00:24:36;11.70;;;3.17;;
40983;SDS011;26714;51.332;12.406;2024-02-21T00:27:02;10.15;;;2.78;;
40983;SDS011;26714;51.332;12.406;2024-02-21T00:29:31;14.65;;;3.10;;
40983;SDS011;26714;51.332;12.406;2024-02-21T00:31:58;14.52;;;3.67;;
40983;SDS011;26714;51.332;12.406;2024-02-21T00:34:23;14.93;;;2.67;;
40983;SDS011;26714;51.332;12.406;2024-02-21T00:36:49;16.50;;;2.92;;
40983;SDS011;26714;51.332;12.406;2024-02-21T00:39:15;14.52;;;2.78;;
40983;SDS011;26714;51.332;12.406;2024-02-21T00:41:43;10.10;;;2.47;;
40983;SDS011;26714;51.332;12.406;2024-02-21T00:44:09;9.17;;;2.70;;
40983;SDS011;26714;51.332;12.406;2024-02-21T00:46:36;13.52;;;2.22;;
40983;SDS011;26714;51.332;12.406;2024-02-21T00:49:05;14.38;;;3.00;;
40983;SDS011;26714;51.332;12.406;2024-02-21T00:51:30;16.15;;;3.35;;
40983;SDS011;26714;51.332;12.406;2024-02-21T00:53:57;16.77;;;3.25;;
40983;SDS011;26714;51.332;12.406;2024-02-21T00:56:23;12.55;;;3.10;;
40983;SDS011;26714;51.332;12.406;2024-02-21T00:58:49;14.27;;;2.90;;
40983;SDS011;26714;51.332;12.406;2024-02-21T01:01:24;16.73;;;2.92;;
40983;SDS011;26714;51.332;12.406;2024-02-21T01:03:50;12.15;;;2.88;;
40983;SDS011;26714;51.332;12.406;2024-02-21T01:06:21;11.85;;;2.67;;
40983;SDS011;26714;51.332;12.406;2024-02-21T01:11:17;12.40;;;3.17;;
40983;SDS011;26714;51.332;12.406;2024-02-21T01:13:43;15.55;;;2.83;;
40983;SDS011;26714;51.332;12.406;2024-02-21T01:16:09;9.05;;;2.75;;
40983;SDS011;26714;51.332;12.406;2024-02-21T01:18:38;17.17;;;2.83;;
40983;SDS011;26714;51.332;12.406;2024-02-21T01:21:07;13.95;;;2.63;;
40983;SDS011;26714;51.332;12.406;2024-02-21T01:23:36;13.85;;;3.30;;
40983;SDS011;26714;51.332;12.406;2024-02-21T01:26:05;9.88;;;2.58;;
40983;SDS011;26714;51.332;12.406;2024-02-21T01:28:34;14.77;;;2.78;;
40983;SDS011;26714;51.332;12.406;2024-02-21T01:31:00;9.43;;;2.40;;
40983;SDS011;26714;51.332;12.406;2024-02-21T01:33:26;17.20;;;2.60;;
40983;SDS011;26714;51.332;12.406;2024-02-21T01:35:52;9.20;;;2.42;;
40983;SDS011;26714;51.332;12.406;2024-02-21T01:38:18;15.10;;;2.75;;
40983;SDS011;26714;51.332;12.406;2024-02-21T01:40:45;14.65;;;2.53;;
40983;SDS011;26714;51.332;12.406;2024-02-21T01:43:21;14.27;;;2.28;;
40983;SDS011;26714;51.332;12.406;2024-02-21T01:45:48;9.18;;;2.40;;
40983;SDS011;26714;51.332;12.406;2024-02-21T01:48:14;12.63;;;3.55;;
40983;SDS011;26714;51.332;12.406;2024-02-21T01:50:40;14.02;;;3.13;;
40983;SDS011;26714;51.332;12.406;2024-02-21T01:53:06;15.65;;;2.55;;
40983;SDS011;26714;51.332;12.406;2024-02-21T01:55:32;18.08;;;3.00;;
40983;SDS011;26714;51.332;12.406;2024-02-21T01:57:58;11.63;;;2.72;;
40983;SDS011;26714;51.332;12.406;2024-02-21T02:00:24;12.25;;;2.80;;
40983;SDS011;26714;51.332;12.406;2024-02-21T02:02:49;15.05;;;2.85;;
40983;SDS011;26714;51.332;12.406;2024-02-21T02:05:16;13.93;;;2.55;;
40983;SDS011;26714;51.332;12.406;2024-02-21T02:07:42;10.30;;;2.67;;
40983;SDS011;26714;51.332;12.406;2024-02-21T02:10:08;14.98;;;2.92;;
40983;SDS011;26714;51.332;12.406;2024-02-21T02:12:36;18.73;;;4.30;;
40983;SDS011;26714;51.332;12.406;2024-02-21T02:15:07;9.43;;;2.72;;
40983;SDS011;26714;51.332;12.406;2024-02-21T02:17:34;15.30;;;3.17;;
40983;SDS011;26714;51.332;12.406;2024-02-21T02:20:00;15.15;;;2.58;;
40983;SDS011;26714;51.332;12.406;2024-02-21T02:22:28;21.95;;;3.15;;
40983;SDS011;26714;51.332;12.406;2024-02-21T02:24:55;13.88;;;2.85;;
40983;SDS011;26714;51.332;12.406;2024-02-21T02:27:21;10.68;;;3.65;;
40983;SDS011;26714;51.332;12.406;2024-02-21T02:29:48;16.75;;;2.90;;
40983;SDS011;26714;51.332;12.406;2024-02-21T02:32:14;18.27;;;3.60;;
40983;SDS011;26714;51.332;12.406;2024-02-21T02:34:39;7.32;;;2.88;;
40983;SDS011;26714;51.332;12.406;2024-02-21T02:37:05;12.45;;;2.80;;
40983;SDS011;26714;51.332;12.406;2024-02-21T02:39:30;10.07;;;3.13;;
40983;SDS011;26714;51.332;12.406;2024-02-21T02:41:58;11.13;;;2.50;;
40983;SDS011;26714;51.332;12.406;2024-02-21T02:44:23;8.07;;;2.28;;
40983;SDS011;26714;51.332;12.406;2024-02-21T02:46:50;10.85;;;2.60;;
40983;SDS011;26714;51.332;12.406;2024-02-21T02:49:16;12.63;;;2.92;;
40983;SDS011;26714;51.332;12.406;2024-02-21T02:51:42;13.00;;;3.20;;
40983;SDS011;26714;51.332;12.406;2024-02-21T02:54:09;9.02;;;2.90;;
40983;SDS011;26714;51.332;12.406;2024-02-21T02:56:35;12.38;;;2.67;;
40983;SDS011;26714;51.332;12.406;2024-02-21T02:59:01;16.35;;;3.15;;
40983;SDS011;26714;51.332;12.406;2024-02-21T03:01:26;18.52;;;4.13;;
40983;SDS011;26714;51.332;12.406;2024-02-21T03:03:53;18.80;;;4.32;;
40983;SDS011;26714;51.332;12.406;2024-02-21T03:06:19;14.18;;;3.15;;
40983;SDS011;26714;51.332;12.406;2024-02-21T03:08:47;11.48;;;2.65;;
40983;SDS011;26714;51.332;12.406;2024-02-21T03:11:15;14.25;;;3.30;;
40983;SDS011;26714;51.332;12.406;2024-02-21T03:13:42;12.73;;;2.97;;
40983;SDS011;26714;51.332;12.406;2024-02-21T03:16:07;13.18;;;2.88;;
40983;SDS011;26714;51.332;12.406;2024-02-21T03:18:34;17.42;;;2.55;;
40983;SDS011;26714;51.332;12.406;2024-02-21T03:21:00;11.65;;;3.05;;
40983;SDS011;26714;51.332;12.406;2024-02-21T03:23:25;14.38;;;3.97;;
40983;SDS011;26714;51.332;12.406;2024-02-21T03:25:51;11.77;;;3.08;;
40983;SDS011;26714;51.332;12.406;2024-02-21T03:28:18;15.23;;;3.05;;
40983;SDS011;26714;51.332;12.406;2024-02-21T03:30:44;18.20;;;3.83;;
40983;SDS011;26714;51.332;12.406;2024-02-21T03:33:12;10.35;;;2.80;;
40983;SDS011;26714;51.332;12.406;2024-02-21T03:35:38;11.68;;;2.85;;
40983;SDS011;26714;51.332;12.406;2024-02-21T03:38:04;14.23;;;3.92;;
40983;SDS011;26714;51.332;12.406;2024-02-21T03:40:29;15.02;;;2.78;;
40983;SDS011;26714;51.332;12.406;2024-02-21T03:42:55;16.42;;;3.25;;
40983;SDS011;26714;51.332;12.406;2024-02-21T03:45:21;15.77;;;3.22;;
40983;SDS011;26714;51.332;12.406;2024-02-21T03:47:47;16.85;;;3.70;;
40983;SDS011;26714;51.332;12.406;2024-02-21T03:50:12;14.75;;;3.47;;
40983;SDS011;26714;51.332;12.406;2024-02-21T03:52:39;12.60;;;2.90;;
40983;SDS011;26714;51.332;12.406;2024-02-21T03:55:05;12.35;;;3.20;;
40983;SDS011;26714;51.332;12.406;2024-02-21T03:57:30;15.00;;;2.67;;
40983;SDS011;26714;51.332;12.406;2024-02-21T03:59:56;8.82;;;2.95;;
40983;SDS011;26714;51.332;12.406;2024-02-21T04:02:22;11.05;;;3.17;;
40983;SDS011;26714;51.332;12.406;2024-02-21T04:04:47;13.00;;;3.20;;
40983;SDS011;26714;51.332;12.406;2024-02-21T04:07:14;15.35;;;3.50;;
40983;SDS011;26714;51.332;12.406;2024-02-21T04:09:39;11.40;;;2.65;;
40983;SDS011;26714;51.332;12.406;2024-02-21T04:12:05;10.98;;;3.17;;
40983;SDS011;26714;51.332;12.406;2024-02-21T04:14:31;15.77;;;3.17;;
40983;SDS011;26714;51.332;12.406;2024-02-21T04:16:56;16.88;;;3.67;;
40983;SDS011;26714;51.332;12.406;2024-02-21T04:19:22;12.50;;;3.25;;
40983;SDS011;26714;51.332;12.406;2024-02-21T04:21:48;10.40;;;2.92;;
40983;SDS011;26714;51.332;12.406;2024-02-21T04:24:13;11.68;;;3.22;;
40983;SDS011;26714;51.332;12.406;2024-02-21T04:26:39;11.40;;;4.10;;
40983;SDS011;26714;51.332;12.406;2024-02-21T04:29:07;14.40;;;2.95;;
40983;SDS011;26714;51.332;12.406;2024-02-21T04:31:33;16.67;;;3.20;;
40983;SDS011;26714;51.332;12.406;2024-02-21T04:33:59;11.00;;;3.55;;
40983;SDS011;26714;51.332;12.406;2024-02-21T04:36:25;16.17;;;3.10;;
40983;SDS011;26714;51.332;12.406;2024-02-21T04:38:51;12.57;;;2.88;;
40983;SDS011;26714;51.332;12.406;2024-02-21T04:41:17;10.50;;;2.67;;
40983;SDS011;26714;51.332;12.406;2024-02-21T04:43:42;12.20;;;3.42;;
40983;SDS011;26714;51.332;12.406;2024-02-21T04:46:08;15.70;;;3.90;;
40983;SDS011;26714;51.332;12.406;2024-02-21T04:48:34;11.15;;;3.50;;
40983;SDS011;26714;51.332;12.406;2024-02-21T04:50:59;16.27;;;3.13;;
40983;SDS011;26714;51.332;12.406;2024-02-21T04:53:25;16.55;;;3.00;;
40983;SDS011;26714;51.332;12.406;2024-02-21T04:55:51;17.70;;;4.05;;
40983;SDS011;26714;51.332;12.406;2024-02-21T04:58:18;15.30;;;3.47;;
40983;SDS011;26714;51.332;12.406;2024-02-21T05:00:44;10.95;;;3.33;;
40983;SDS011;26714;51.332;12.406;2024-02-21T05:03:09;10.20;;;3.17;;
40983;SDS011;26714;51.332;12.406;2024-02-21T05:05:36;11.95;;;3.45;;
40983;SDS011;26714;51.332;12.406;2024-02-21T05:08:02;15.82;;;3.95;;
40983;SDS011;26714;51.332;12.406;2024-02-21T05:10:30;10.13;;;3.35;;
40983;SDS011;26714;51.332;12.406;2024-02-21T05:12:57;18.57;;;3.63;;
40983;SDS011;26714;51.332;12.406;2024-02-21T05:15:23;15.48;;;3.50;;
40983;SDS011;26714;51.332;12.406;2024-02-21T05:17:48;16.08;;;3.50;;
40983;SDS011;26714;51.332;12.406;2024-02-21T05:20:15;13.55;;;4.53;;
40983;SDS011;26714;51.332;12.406;2024-02-21T05:22:41;16.30;;;3.90;;
40983;SDS011;26714;51.332;12.406;2024-02-21T05:25:07;13.93;;;3.28;;
40983;SDS011;26714;51.332;12.406;2024-02-21T05:27:33;14.70;;;3.45;;
40983;SDS011;26714;51.332;12.406;2024-02-21T05:29:59;8.18;;;3.10;;
40983;SDS011;26714;51.332;12.406;2024-02-21T05:32:27;11.73;;;3.05;;
40983;SDS011;26714;51.332;12.406;2024-02-21T05:34:53;14.23;;;2.63;;
40983;SDS011;26714;51.332;12.406;2024-02-21T05:37:20;12.65;;;2.90;;
40983;SDS011;26714;51.332;12.406;2024-02-21T05:39:46;15.43;;;3.80;;
40983;SDS011;26714;51.332;12.406;2024-02-21T05:42:15;8.60;;;3.15;;
40983;SDS011;26714;51.332;12.406;2024-02-21T05:44:41;15.02;;;3.47;;
40983;SDS011;26714;51.332;12.406;2024-02-21T05:47:07;12.10;;;3.03;;
40983;SDS011;26714;51.332;12.406;2024-02-21T05:49:35;12.27;;;3.00;;
40983;SDS011;26714;51.332;12.406;2024-02-21T05:52:01;8.07;;;2.88;;
40983;SDS011;26714;51.332;12.406;2024-02-21T05:54:26;18.27;;;2.88;;
40983;SDS011;26714;51.332;12.406;2024-02-21T05:56:52;14.35;;;3.40;;
40983;SDS011;26714;51.332;12.406;2024-02-21T05:59:20;12.18;;;2.95;;
40983;SDS011;26714;51.332;12.406;2024-02-21T06:01:54;14.68;;;3.75;;
40983;SDS011;26714;51.332;12.406;2024-02-21T06:04:23;9.85;;;3.05;;
40983;SDS011;26714;51.332;12.406;2024-02-21T06:06:50;15.23;;;3.53;;
40983;SDS011;26714;51.332;12.406;2024-02-21T06:09:16;15.73;;;2.80;;
40983;SDS011;26714;51.332;12.406;2024-02-21T06:11:43;9.75;;;3.08;;
40983;SDS011;26714;51.332;12.406;2024-02-21T06:14:08;14.57;;;3.38;;
40983;SDS011;26714;51.332;12.406;2024-02-21T06:16:34;15.85;;;3.88;;
40983;SDS011;26714;51.332;12.406;2024-02-21T06:19:00;8.90;;;3.10;;
40983;SDS011;26714;51.332;12.406;2024-02-21T06:21:29;15.10;;;3.05;;
40983;SDS011;26714;51.332;12.406;2024-02-21T06:23:54;16.05;;;3.63;;
40983;SDS011;26714;51.332;12.406;2024-02-21T06:26:20;11.27;;;3.30;;
40983;SDS011;26714;51.332;12.406;2024-02-21T06:28:46;15.32;;;3.63;;
40983;SDS011;26714;51.332;12.406;2024-02-21T06:31:13;22.50;;;4.43;;
40983;SDS011;26714;51.332;12.406;2024-02-21T06:33:40;16.30;;;3.53;;
40983;SDS011;26714;51.332;12.406;2024-02-21T06:36:06;13.50;;;3.22;;
40983;SDS011;26714;51.332;12.406;2024-02-21T06:38:32;11.23;;;3.30;;
40983;SDS011;26714;51.332;12.406;2024-02-21T06:41:00;10.35;;;3.78;;
40983;SDS011;26714;51.332;12.406;2024-02-21T06:43:28;12.82;;;4.13;;
40983;SDS011;26714;51.332;12.406;2024-02-21T06:45:54;15.70;;;3.17;;
40983;SDS011;26714;51.332;12.406;2024-02-21T06:48:22;11.68;;;3.60;;
40983;SDS011;26714;51.332;12.406;2024-02-21T06:50:48;15.82;;;3.28;;
40983;SDS011;26714;51.332;12.406;2024-02-21T06:53:14;13.10;;;3.80;;
40983;SDS011;26714;51.332;12.406;2024-02-21T06:55:40;16.58;;;3.55;;
40983;SDS011;26714;51.332;12.406;2024-02-21T06:58:07;14.02;;;3.65;;
40983;SDS011;26714;51.332;12.406;2024-02-21T07:00:37;14.63;;;5.28;;
40983;SDS011;26714;51.332;12.406;2024-02-21T07:03:08;13.38;;;3.90;;
40983;SDS011;26714;51.332;12.406;2024-02-21T07:05:36;13.82;;;3.70;;
40983;SDS011;26714;51.332;12.406;2024-02-21T07:08:03;10.35;;;3.35;;
40983;SDS011;26714;51.332;12.406;2024-02-21T07:10:30;10.35;;;3.47;;
40983;SDS011;26714;51.332;12.406;2024-02-21T07:12:56;11.10;;;3.58;;
40983;SDS011;26714;51.332;12.406;2024-02-21T07:15:22;10.88;;;3.40;;
40983;SDS011;26714;51.332;12.406;2024-02-21T07:17:49;12.18;;;3.47;;
40983;SDS011;26714;51.332;12.406;2024-02-21T07:20:15;14.77;;;3.17;;
40983;SDS011;26714;51.332;12.406;2024-02-21T07:22:41;12.05;;;3.58;;
40983;SDS011;26714;51.332;12.406;2024-02-21T07:25:09;12.32;;;3.63;;
40983;SDS011;26714;51.332;12.406;2024-02-21T07:27:36;11.00;;;3.78;;
40983;SDS011;26714;51.332;12.406;2024-02-21T07:30:02;11.50;;;4.10;;
40983;SDS011;26714;51.332;12.406;2024-02-21T07:32:29;12.85;;;4.32;;
40983;SDS011;26714;51.332;12.406;2024-02-21T07:34:55;18.30;;;3.78;;
40983;SDS011;26714;51.332;12.406;2024-02-21T07:37:21;14.10;;;3.95;;
40983;SDS011;26714;51.332;12.406;2024-02-21T07:39:48;12.27;;;4.78;;
40983;SDS011;26714;51.332;12.406;2024-02-21T07:42:25;12.73;;;5.03;;
40983;SDS011;26714;51.332;12.406;2024-02-21T07:44:51;14.98;;;4.93;;
40983;SDS011;26714;51.332;12.406;2024-02-21T07:47:24;11.65;;;4.60;;
40983;SDS011;26714;51.332;12.406;2024-02-21T07:49:52;14.77;;;4.65;;
40983;SDS011;26714;51.332;12.406;2024-02-21T07:52:23;10.98;;;4.28;;
40983;SDS011;26714;51.332;12.406;2024-02-21T07:54:50;11.27;;;4.18;;
40983;SDS011;26714;51.332;12.406;2024-02-21T07:57:20;14.98;;;4.10;;
40983;SDS011;26714;51.332;12.406;2024-02-21T07:59:51;15.50;;;5.22;;
40983;SDS011;26714;51.332;12.406;2024-02-21T08:02:17;15.45;;;4.05;;
40983;SDS011;26714;51.332;12.406;2024-02-21T08:04:43;11.70;;;4.00;;
40983;SDS011;26714;51.332;12.406;2024-02-21T08:07:10;11.77;;;4.10;;
40983;SDS011;26714;51.332;12.406;2024-02-21T08:09:39;15.18;;;4.57;;
40983;SDS011;26714;51.332;12.406;2024-02-21T08:12:08;11.43;;;3.53;;
40983;SDS011;26714;51.332;12.406;2024-02-21T08:14:34;6.95;;;3.42;;
40983;SDS011;26714;51.332;12.406;2024-02-21T08:17:02;11.50;;;4.20;;
40983;SDS011;26714;51.332;12.406;2024-02-21T08:21:55;10.73;;;3.80;;
40983;SDS011;26714;51.332;12.406;2024-02-21T08:24:23;9.10;;;3.72;;
40983;SDS011;26714;51.332;12.406;2024-02-21T08:26:50;12.10;;;4.43;;
40983;SDS011;26714;51.332;12.406;2024-02-21T08:29:16;12.05;;;4.07;;
40983;SDS011;26714;51.332;12.406;2024-02-21T08:31:43;14.10;;;4.13;;
40983;SDS011;26714;51.332;12.406;2024-02-21T08:34:08;14.40;;;4.53;;
40983;SDS011;26714;51.332;12.406;2024-02-21T08:36:35;12.25;;;3.97;;
40983;SDS011;26714;51.332;12.406;2024-02-21T08:39:02;13.25;;;4.10;;
40983;SDS011;26714;51.332;12.406;2024-02-21T08:41:31;12.82;;;4.38;;
40983;SDS011;26714;51.332;12.406;2024-02-21T08:43:57;11.93;;;4.60;;
40983;SDS011;26714;51.332;12.406;2024-02-21T08:46:23;15.82;;;4.50;;
40983;SDS011;26714;51.332;12.406;2024-02-21T08:48:51;8.43;;;3.97;;
40983;SDS011;26714;51.332;12.406;2024-02-21T08:51:22;12.38;;;4.25;;
40983;SDS011;26714;51.332;12.406;2024-02-21T08:53:47;12.40;;;3.65;;
40983;SDS011;26714;51.332;12.406;2024-02-21T08:56:13;15.73;;;4.72;;
40983;SDS011;26714;51.332;12.406;2024-02-21T08:58:39;21.02;;;4.95;;
40983;SDS011;26714;51.332;12.406;2024-02-21T09:01:06;16.10;;;4.20;;
40983;SDS011;26714;51.332;12.406;2024-02-21T09:03:37;15.70;;;4.43;;
40983;SDS011;26714;51.332;12.406;2024-02-21T09:06:04;16.67;;;5.13;;
40983;SDS011;26714;51.332;12.406;2024-02-21T09:08:30;15.10;;;4.55;;
40983;SDS011;26714;51.332;12.406;2024-02-21T09:10:57;12.40;;;4.38;;
40983;SDS011;26714;51.332;12.406;2024-02-21T09:13:25;10.70;;;4.28;;
40983;SDS011;26714;51.332;12.406;2024-02-21T09:18:20;12.80;;;4.53;;
40983;SDS011;26714;51.332;12.406;2024-02-21T09:20:51;16.48;;;4.95;;
40983;SDS011;26714;51.332;12.406;2024-02-21T09:23:19;13.35;;;5.15;;
40983;SDS011;26714;51.332;12.406;2024-02-21T09:25:46;9.15;;;3.97;;
40983;SDS011;26714;51.332;12.406;2024-02-21T09:28:16;18.63;;;4.50;;
40983;SDS011;26714;51.332;12.406;2024-02-21T09:30:44;12.02;;;4.32;;
40983;SDS011;26714;51.332;12.406;2024-02-21T09:33:18;12.13;;;4.10;;
40983;SDS011;26714;51.332;12.406;2024-02-21T09:35:45;10.70;;;4.25;;
40983;SDS011;26714;51.332;12.406;2024-02-21T09:38:11;14.80;;;4.85;;
40983;SDS011;26714;51.332;12.406;2024-02-21T09:40:45;16.65;;;5.68;;
40983;SDS011;26714;51.332;12.406;2024-02-21T09:43:16;13.25;;;4.28;;
40983;SDS011;26714;51.332;12.406;2024-02-21T09:45:47;12.50;;;3.78;;
40983;SDS011;26714;51.332;12.406;2024-02-21T09:48:42;14.95;;;4.60;;
40983;SDS011;26714;51.332;12.406;2024-02-21T09:51:41;13.07;;;4.97;;
40983;SDS011;26714;51.332;12.406;2024-02-21T09:58:29;14.68;;;4.45;;
40983;SDS011;26714;51.332;12.406;2024-02-21T10:01:29;16.05;;;5.18;;
40983;SDS011;26714;51.332;12.406;2024-02-21T10:08:26;15.70;;;4.25;;
40983;SDS011;26714;51.332;12.406;2024-02-21T10:29:28;15.05;;;4.30;;
40983;SDS011;26714;51.332;12.406;2024-02-21T10:32:13;13.60;;;3.95;;
40983;SDS011;26714;51.332;12.406;2024-02-21T10:34:50;14.60;;;4.35;;
40983;SDS011;26714;51.332;12.406;2024-02-21T10:37:43;15.38;;;3.65;;
40983;SDS011;26714;51.332;12.406;2024-02-21T10:40:11;9.48;;;3.22;;
40983;SDS011;26714;51.332;12.406;2024-02-21T10:42:42;10.68;;;4.28;;
40983;SDS011;26714;51.332;12.406;2024-02-21T10:45:10;11.50;;;3.63;;
40983;SDS011;26714;51.332;12.406;2024-02-21T10:50:08;12.23;;;3.35;;
40983;SDS011;26714;51.332;12.406;2024-02-21T10:55:39;12.60;;;2.90;;
40983;SDS011;26714;51.332;12.406;2024-02-21T10:58:18;10.30;;;3.53;;
40983;SDS011;26714;51.332;12.406;2024-02-21T11:00:48;10.93;;;3.50;;
40983;SDS011;26714;51.332;12.406;2024-02-21T11:03:22;14.10;;;3.17;;
40983;SDS011;26714;51.332;12.406;2024-02-21T11:21:57;10.18;;;3.58;;
40983;SDS011;26714;51.332;12.406;2024-02-21T11:36:22;12.18;;;2.95;;
40983;SDS011;26714;51.332;12.406;2024-02-21T11:39:52;7.95;;;3.20;;
40983;SDS011;26714;51.332;12.406;2024-02-21T12:23:38;8.48;;;2.00;;
40983;SDS011;26714;51.332;12.406;2024-02-21T12:27:16;6.65;;;2.13;;
40983;SDS011;26714;51.332;12.406;2024-02-21T12:34:48;4.80;;;2.03;;
40983;SDS011;26714;51.332;12.406;2024-02-21T12:37:14;6.75;;;2.20;;
40983;SDS011;26714;51.332;12.406;2024-02-21T12:39:50;6.28;;;2.45;;
40983;SDS011;26714;51.332;12.406;2024-02-21T12:42:16;9.27;;;2.53;;
40983;SDS011;26714;51.332;12.406;2024-02-21T12:44:45;8.80;;;2.20;;
40983;SDS011;26714;51.332;12.406;2024-02-21T12:47:11;10.25;;;2.25;;
40983;SDS011;26714;51.332;12.406;2024-02-21T12:49:37;6.85;;;2.10;;
40983;SDS011;26714;51.332;12.406;2024-02-21T12:52:03;7.10;;;2.05;;
40983;SDS011;26714;51.332;12.406;2024-02-21T12:54:29;5.82;;;2.60;;
40983;SDS011;26714;51.332;12.406;2024-02-21T12:56:58;11.85;;;3.20;;
40983;SDS011;26714;51.332;12.406;2024-02-21T12:59:28;6.55;;;2.47;;
40983;SDS011;26714;51.332;12.406;2024-02-21T13:01:56;4.97;;;2.10;;
40983;SDS011;26714;51.332;12.406;2024-02-21T13:04:21;8.27;;;2.60;;
40983;SDS011;26714;51.332;12.406;2024-02-21T13:06:48;9.32;;;2.40;;
40983;SDS011;26714;51.332;12.406;2024-02-21T13:09:15;8.65;;;3.08;;
40983;SDS011;26714;51.332;12.406;2024-02-21T13:11:42;5.20;;;1.90;;
40983;SDS011;26714;51.332;12.406;2024-02-21T13:14:10;7.57;;;2.38;;
40983;SDS011;26714;51.332;12.406;2024-02-21T13:16:36;8.93;;;2.13;;
40983;SDS011;26714;51.332;12.406;2024-02-21T13:19:08;8.50;;;1.88;;
40983;SDS011;26714;51.332;12.406;2024-02-21T13:21:35;6.10;;;1.92;;
40983;SDS011;26714;51.332;12.406;2024-02-21T13:24:03;6.68;;;1.92;;
40983;SDS011;26714;51.332;12.406;2024-02-21T13:26:32;10.50;;;2.42;;
40983;SDS011;26714;51.332;12.406;2024-02-21T13:29:04;9.02;;;2.00;;
40983;SDS011;26714;51.332;12.406;2024-02-21T13:31:31;6.57;;;2.03;;
40983;SDS011;26714;51.332;12.406;2024-02-21T13:36:26;12.35;;;1.75;;
40983;SDS011;26714;51.332;12.406;2024-02-21T13:38:52;5.85;;;1.95;;
40983;SDS011;26714;51.332;12.406;2024-02-21T13:41:19;8.05;;;2.40;;
40983;SDS011;26714;51.332;12.406;2024-02-21T13:43:45;7.85;;;1.83;;
40983;SDS011;26714;51.332;12.406;2024-02-21T13:46:12;6.22;;;1.92;;
40983;SDS011;26714;51.332;12.406;2024-02-21T13:48:37;6.05;;;2.10;;
40983;SDS011;26714;51.332;12.406;2024-02-21T13:51:04;6.45;;;1.95;;
40983;SDS011;26714;51.332;12.406;2024-02-21T13:53:32;10.23;;;1.65;;
40983;SDS011;26714;51.332;12.406;2024-02-21T13:56:00;5.85;;;1.63;;
40983;SDS011;26714;51.332;12.406;2024-02-21T13:58:27;8.60;;;2.20;;
40983;SDS011;26714;51.332;12.406;2024-02-21T14:00:53;7.05;;;1.73;;
40983;SDS011;26714;51.332;12.406;2024-02-21T14:03:23;5.43;;;2.05;;
40983;SDS011;26714;51.332;12.406;2024-02-21T14:08:50;6.20;;;1.50;;
40983;SDS011;26714;51.332;12.406;2024-02-21T14:11:20;6.63;;;1.80;;
40983;SDS011;26714;51.332;12.406;2024-02-21T14:13:46;5.17;;;2.13;;
40983;SDS011;26714;51.332;12.406;2024-02-21T14:16:24;11.68;;;2.28;;
40983;SDS011;26714;51.332;12.406;2024-02-21T14:18:51;7.50;;;2.53;;
40983;SDS011;26714;51.332;12.406;2024-02-21T14:21:18;6.97;;;1.67;;
40983;SDS011;26714;51.332;12.406;2024-02-21T14:23:56;9.27;;;2.13;;
40983;SDS011;26714;51.332;12.406;2024-02-21T14:26:22;7.43;;;2.35;;
40983;SDS011;26714;51.332;12.406;2024-02-21T14:29:31;8.38;;;2.13;;
40983;SDS011;26714;51.332;12.406;2024-02-21T14:32:10;3.90;;;1.75;;
40983;SDS011;26714;51.332;12.406;2024-02-21T14:34:39;9.73;;;2.45;;
40983;SDS011;26714;51.332;12.406;2024-02-21T14:37:05;7.68;;;2.80;;
40983;SDS011;26714;51.332;12.406;2024-02-21T14:39:33;6.72;;;1.90;;
40983;SDS011;26714;51.332;12.406;2024-02-21T14:42:02;5.18;;;1.58;;
40983;SDS011;26714;51.332;12.406;2024-02-21T14:44:33;6.28;;;1.50;;
40983;SDS011;26714;51.332;12.406;2024-02-21T14:47:08;9.93;;;2.03;;
40983;SDS011;26714;51.332;12.406;2024-02-21T14:49:38;11.15;;;2.10;;
40983;SDS011;26714;51.332;12.406;2024-02-21T14:52:08;7.05;;;2.15;;
40983;SDS011;26714;51.332;12.406;2024-02-21T14:55:15;8.55;;;2.08;;
40983;SDS011;26714;51.332;12.406;2024-02-21T14:57:44;11.48;;;2.10;;
40983;SDS011;26714;51.332;12.406;2024-02-21T15:00:16;4.82;;;1.70;;
40983;SDS011;26714;51.332;12.406;2024-02-21T15:02:43;6.18;;;1.90;;
40983;SDS011;26714;51.332;12.406;2024-02-21T15:05:13;5.55;;;1.77;;
40983;SDS011;26714;51.332;12.406;2024-02-21T15:07:41;6.27;;;1.70;;
40983;SDS011;26714;51.332;12.406;2024-02-21T15:10:11;7.85;;;2.10;;
40983;SDS011;26714;51.332;12.406;2024-02-21T15:12:41;4.65;;;1.90;;
40983;SDS011;26714;51.332;12.406;2024-02-21T15:15:08;9.80;;;2.70;;
40983;SDS011;26714;51.332;12.406;2024-02-21T15:17:34;5.88;;;1.75;;
40983;SDS011;26714;51.332;12.406;2024-02-21T15:20:00;9.93;;;2.00;;
40983;SDS011;26714;51.332;12.406;2024-02-21T15:22:30;6.70;;;1.80;;
40983;SDS011;26714;51.332;12.406;2024-02-21T15:24:58;5.50;;;1.67;;
40983;SDS011;26714;51.332;12.406;2024-02-21T15:27:27;11.38;;;1.95;;
40983;SDS011;26714;51.332;12.406;2024-02-21T15:29:58;12.55;;;2.15;;
40983;SDS011;26714;51.332;12.406;2024-02-21T15:32:31;5.43;;;1.75;;
40983;SDS011;26714;51.332;12.406;2024-02-21T15:34:57;10.93;;;2.15;;
40983;SDS011;26714;51.332;12.406;2024-02-21T15:37:23;9.25;;;2.10;;
40983;SDS011;26714;51.332;12.406;2024-02-21T15:39:51;10.73;;;2.92;;
40983;SDS011;26714;51.332;12.406;2024-02-21T15:42:17;5.95;;;2.30;;
40983;SDS011;26714;51.332;12.406;2024-02-21T15:44:44;7.13;;;2.08;;
40983;SDS011;26714;51.332;12.406;2024-02-21T15:47:17;13.55;;;2.58;;
40983;SDS011;26714;51.332;12.406;2024-02-21T15:50:18;8.48;;;2.17;;
40983;SDS011;26714;51.332;12.406;2024-02-21T15:53:03;6.22;;;2.50;;
40983;SDS011;26714;51.332;12.406;2024-02-21T15:55:32;9.40;;;2.63;;
40983;SDS011;26714;51.332;12.406;2024-02-21T15:57:59;7.97;;;2.53;;
40983;SDS011;26714;51.332;12.406;2024-02-21T16:00:30;9.25;;;2.63;;
40983;SDS011;26714;51.332;12.406;2024-02-21T16:03:48;6.68;;;2.35;;
40983;SDS011;26714;51.332;12.406;2024-02-21T16:06:15;6.28;;;2.20;;
40983;SDS011;26714;51.332;12.406;2024-02-21T16:08:41;6.35;;;2.10;;
40983;SDS011;26714;51.332;12.406;2024-02-21T16:11:14;9.18;;;2.65;;
40983;SDS011;26714;51.332;12.406;2024-02-21T16:19:16;6.93;;;3.08;;
40983;SDS011;26714;51.332;12.406;2024-02-21T16:21:58;9.77;;;2.80;;
40983;SDS011;26714;51.332;12.406;2024-02-21T16:24:46;7.13;;;2.03;;
40983;SDS011;26714;51.332;12.406;2024-02-21T16:27:15;10.02;;;2.03;;
40983;SDS011;26714;51.332;12.406;2024-02-21T16:29:43;10.07;;;2.15;;
40983;SDS011;26714;51.332;12.406;2024-02-21T16:32:18;7.15;;;1.95;;
40983;SDS011;26714;51.332;12.406;2024-02-21T16:34:45;10.45;;;2.10;;
40983;SDS011;26714;51.332;12.406;2024-02-21T16:37:14;8.57;;;2.13;;
40983;SDS011;26714;51.332;12.406;2024-02-21T16:40:07;10.75;;;1.83;;